RYR23BF EGPH-EIDW
Flight info
| Callsign | RYR23BF |
|---|---|
| Flight time | 0h 42m |
| Altitude | 22000 |
| Route | GOSAM P600 TRN/N0357F240 DCT BLACA P620 NIMAT NIMAT4L |
| Aircraft | B738/M-SDE2E3FGHIRWXY/LB1 |
Departure
| Time | 2026-05-07 09:15 |
|---|---|
| Airport | Edinburgh Airport (EGPH) |
Arrival
| Time | 2026-05-07 09:58 |
|---|---|
| Airport | Dublin Airport (EIDW) |
| Time | Latitude | Longitude | Altitude | Speed | Heading |
|---|---|---|---|---|---|
| 2026-05-07 08:50 | 55.94657 | -3.36618 | 115 ft | 0 kts | 89° |
| 2026-05-07 09:05 | 55.94657 | -3.36645 | 113 ft | 4 kts | 89° |
| 2026-05-07 09:05 | 55.94656 | -3.36690 | 113 ft | 4 kts | 87° |
| 2026-05-07 09:05 | 55.94650 | -3.36729 | 111 ft | 4 kts | 26° |
| 2026-05-07 09:06 | 55.94625 | -3.36734 | 111 ft | 4 kts | 357° |
| 2026-05-07 09:06 | 55.94617 | -3.36734 | 113 ft | 0 kts | 359° |
| 2026-05-07 09:08 | 55.94625 | -3.36734 | 112 ft | 3 kts | 359° |
| 2026-05-07 09:09 | 55.94662 | -3.36736 | 115 ft | 8 kts | 360° |
| 2026-05-07 09:09 | 55.94732 | -3.36739 | 115 ft | 12 kts | 354° |
| 2026-05-07 09:09 | 55.94818 | -3.36775 | 115 ft | 12 kts | 359° |
| 2026-05-07 09:09 | 55.94895 | -3.36808 | 114 ft | 12 kts | 329° |
| 2026-05-07 09:10 | 55.94964 | -3.36783 | 115 ft | 12 kts | 52° |
| 2026-05-07 09:10 | 55.95015 | -3.36633 | 113 ft | 16 kts | 59° |
| 2026-05-07 09:10 | 55.95082 | -3.36440 | 113 ft | 19 kts | 59° |
| 2026-05-07 09:10 | 55.95151 | -3.36232 | 114 ft | 19 kts | 59° |
| 2026-05-07 09:11 | 55.95218 | -3.36030 | 115 ft | 19 kts | 59° |
| 2026-05-07 09:11 | 55.95285 | -3.35834 | 111 ft | 18 kts | 58° |
| 2026-05-07 09:11 | 55.95350 | -3.35648 | 112 ft | 17 kts | 54° |
| 2026-05-07 09:11 | 55.95408 | -3.35467 | 113 ft | 15 kts | 63° |
| 2026-05-07 09:12 | 55.95457 | -3.35401 | 115 ft | 9 kts | 353° |
| 2026-05-07 09:12 | 55.95488 | -3.35427 | 114 ft | 0 kts | 328° |
| 2026-05-07 09:14 | 55.95489 | -3.35428 | 114 ft | 1 kts | 328° |
| 2026-05-07 09:14 | 55.95506 | -3.35447 | 112 ft | 6 kts | 328° |
| 2026-05-07 09:14 | 55.95557 | -3.35505 | 112 ft | 9 kts | 325° |
| 2026-05-07 09:14 | 55.95548 | -3.35632 | 111 ft | 14 kts | 238° |
| 2026-05-07 09:15 | 55.95421 | -3.36006 | 109 ft | 71 kts | 239° |
| 2026-05-07 09:15 | 55.95031 | -3.37151 | 109 ft | 139 kts | 237° |
| 2026-05-07 09:15 | 55.94497 | -3.38820 | 555 ft | 160 kts | 239° |
| 2026-05-07 09:15 | 55.93926 | -3.40577 | 1451 ft | 166 kts | 233° |
| 2026-05-07 09:16 | 55.93318 | -3.42262 | 2425 ft | 164 kts | 233° |
| 2026-05-07 09:16 | 55.92651 | -3.44140 | 2776 ft | 193 kts | 234° |
| 2026-05-07 09:16 | 55.91899 | -3.46280 | 3111 ft | 212 kts | 235° |
| 2026-05-07 09:16 | 55.91372 | -3.47781 | 3481 ft | 217 kts | 236° |
| 2026-05-07 09:17 | 55.90582 | -3.50140 | 3940 ft | 231 kts | 243° |
| 2026-05-07 09:17 | 55.90201 | -3.53012 | 4468 ft | 246 kts | 258° |
| 2026-05-07 09:17 | 55.89926 | -3.56049 | 5337 ft | 249 kts | 257° |
| 2026-05-07 09:17 | 55.89611 | -3.59106 | 5848 ft | 250 kts | 252° |
| 2026-05-07 09:18 | 55.88696 | -3.61686 | 6626 ft | 250 kts | 221° |
| 2026-05-07 09:18 | 55.87377 | -3.63716 | 7518 ft | 253 kts | 221° |
| 2026-05-07 09:18 | 55.86036 | -3.65806 | 8351 ft | 258 kts | 221° |
| 2026-05-07 09:18 | 55.84672 | -3.67942 | 9312 ft | 259 kts | 222° |
| 2026-05-07 09:19 | 55.83309 | -3.70081 | 10123 ft | 263 kts | 222° |
| 2026-05-07 09:19 | 55.81908 | -3.72285 | 10460 ft | 285 kts | 222° |
| 2026-05-07 09:19 | 55.80367 | -3.74712 | 10760 ft | 305 kts | 221° |
| 2026-05-07 09:19 | 55.78762 | -3.77242 | 11432 ft | 311 kts | 221° |
| 2026-05-07 09:20 | 55.77111 | -3.79844 | 12236 ft | 315 kts | 221° |
| 2026-05-07 09:20 | 55.75460 | -3.82445 | 13031 ft | 320 kts | 221° |
| 2026-05-07 09:20 | 55.73799 | -3.85062 | 13832 ft | 324 kts | 221° |
| 2026-05-07 09:20 | 55.72087 | -3.87756 | 14586 ft | 328 kts | 221° |
| 2026-05-07 09:21 | 55.70376 | -3.90447 | 15467 ft | 328 kts | 222° |
| 2026-05-07 09:21 | 55.68658 | -3.93148 | 16249 ft | 333 kts | 222° |
| 2026-05-07 09:21 | 55.66923 | -3.95870 | 17124 ft | 333 kts | 222° |
| 2026-05-07 09:21 | 55.65192 | -3.98584 | 18139 ft | 330 kts | 223° |
| 2026-05-07 09:22 | 55.63482 | -4.01261 | 19045 ft | 327 kts | 223° |
| 2026-05-07 09:22 | 55.61785 | -4.03915 | 19836 ft | 327 kts | 223° |
| 2026-05-07 09:22 | 55.60083 | -4.06573 | 20623 ft | 327 kts | 223° |
| 2026-05-07 09:22 | 55.58377 | -4.09235 | 21436 ft | 327 kts | 223° |
| 2026-05-07 09:23 | 55.56668 | -4.11899 | 21843 ft | 326 kts | 223° |
| 2026-05-07 09:23 | 55.54964 | -4.14552 | 21957 ft | 329 kts | 223° |
| 2026-05-07 09:23 | 55.53251 | -4.17216 | 21963 ft | 327 kts | 223° |
| 2026-05-07 09:23 | 55.51544 | -4.19866 | 21968 ft | 326 kts | 223° |
| 2026-05-07 09:24 | 55.49843 | -4.22504 | 21978 ft | 325 kts | 223° |
| 2026-05-07 09:24 | 55.48142 | -4.25139 | 21976 ft | 325 kts | 223° |
| 2026-05-07 09:24 | 55.46445 | -4.27764 | 21979 ft | 325 kts | 223° |
| 2026-05-07 09:24 | 55.44742 | -4.30396 | 21946 ft | 325 kts | 222° |
| 2026-05-07 09:25 | 55.43040 | -4.33024 | 21964 ft | 325 kts | 222° |
| 2026-05-07 09:25 | 55.41335 | -4.35652 | 21966 ft | 326 kts | 222° |
| 2026-05-07 09:25 | 55.39630 | -4.38278 | 21965 ft | 327 kts | 222° |
| 2026-05-07 09:25 | 55.37916 | -4.40914 | 21972 ft | 328 kts | 222° |
| 2026-05-07 09:26 | 55.36196 | -4.43556 | 21992 ft | 329 kts | 221° |
| 2026-05-07 09:26 | 55.34469 | -4.46206 | 21975 ft | 330 kts | 221° |
| 2026-05-07 09:26 | 55.32740 | -4.48856 | 21967 ft | 330 kts | 221° |
| 2026-05-07 09:26 | 55.31013 | -4.51498 | 21965 ft | 330 kts | 221° |
| 2026-05-07 09:27 | 55.29285 | -4.54141 | 21972 ft | 329 kts | 221° |
| 2026-05-07 09:27 | 55.27556 | -4.56781 | 21960 ft | 329 kts | 221° |
| 2026-05-07 09:27 | 55.24116 | -4.62024 | 21973 ft | 327 kts | 221° |
| 2026-05-07 09:28 | 55.22398 | -4.64638 | 21967 ft | 327 kts | 221° |
| 2026-05-07 09:28 | 55.20683 | -4.67245 | 21965 ft | 326 kts | 221° |
| 2026-05-07 09:28 | 55.18971 | -4.69838 | 21961 ft | 326 kts | 220° |
| 2026-05-07 09:28 | 55.17083 | -4.72035 | 21946 ft | 327 kts | 208° |
| 2026-05-07 09:29 | 55.15050 | -4.73818 | 21965 ft | 327 kts | 207° |
| 2026-05-07 09:29 | 55.13007 | -4.75573 | 21971 ft | 328 kts | 207° |
| 2026-05-07 09:29 | 55.10954 | -4.77332 | 21973 ft | 329 kts | 207° |
| 2026-05-07 09:29 | 55.08898 | -4.79101 | 21961 ft | 330 kts | 207° |
| 2026-05-07 09:30 | 55.06839 | -4.80877 | 21974 ft | 330 kts | 207° |
| 2026-05-07 09:30 | 55.04777 | -4.82661 | 21970 ft | 330 kts | 207° |
| 2026-05-07 09:30 | 55.02720 | -4.84444 | 21962 ft | 331 kts | 207° |
| 2026-05-07 09:30 | 55.00660 | -4.86231 | 21967 ft | 331 kts | 207° |
| 2026-05-07 09:31 | 54.98598 | -4.88018 | 21967 ft | 331 kts | 207° |
| 2026-05-07 09:31 | 54.96539 | -4.89803 | 21971 ft | 330 kts | 207° |
| 2026-05-07 09:31 | 54.94482 | -4.91584 | 21978 ft | 330 kts | 207° |
| 2026-05-07 09:31 | 54.92426 | -4.93363 | 21978 ft | 330 kts | 207° |
| 2026-05-07 09:32 | 54.90367 | -4.95142 | 21962 ft | 330 kts | 207° |
| 2026-05-07 09:32 | 54.88306 | -4.96923 | 21962 ft | 331 kts | 207° |
| 2026-05-07 09:32 | 54.86247 | -4.98698 | 21972 ft | 331 kts | 207° |
| 2026-05-07 09:32 | 54.84185 | -5.00475 | 21969 ft | 331 kts | 207° |
| 2026-05-07 09:33 | 54.82119 | -5.02253 | 21972 ft | 331 kts | 207° |
| 2026-05-07 09:33 | 54.80055 | -5.04027 | 21974 ft | 332 kts | 207° |
| 2026-05-07 09:33 | 54.77988 | -5.05802 | 21968 ft | 332 kts | 207° |
| 2026-05-07 09:33 | 54.75916 | -5.07579 | 21970 ft | 332 kts | 207° |
| 2026-05-07 09:34 | 54.73847 | -5.09352 | 21973 ft | 332 kts | 207° |
| 2026-05-07 09:34 | 54.71776 | -5.11123 | 21973 ft | 332 kts | 207° |
| 2026-05-07 09:34 | 54.69705 | -5.12893 | 21970 ft | 332 kts | 207° |
| 2026-05-07 09:34 | 54.67633 | -5.14663 | 21973 ft | 332 kts | 207° |
| 2026-05-07 09:35 | 54.65561 | -5.16429 | 21971 ft | 332 kts | 207° |
| 2026-05-07 09:35 | 54.63492 | -5.18192 | 21954 ft | 332 kts | 206° |
| 2026-05-07 09:35 | 54.61424 | -5.19952 | 21959 ft | 329 kts | 206° |
| 2026-05-07 09:35 | 54.59387 | -5.21682 | 21792 ft | 325 kts | 206° |
| 2026-05-07 09:36 | 54.57376 | -5.23389 | 21603 ft | 320 kts | 206° |
| 2026-05-07 09:36 | 54.55384 | -5.25078 | 21278 ft | 318 kts | 207° |
| 2026-05-07 09:36 | 54.53410 | -5.26750 | 20973 ft | 315 kts | 207° |
| 2026-05-07 09:36 | 54.51448 | -5.28410 | 20624 ft | 313 kts | 207° |
| 2026-05-07 09:37 | 54.49504 | -5.30053 | 20321 ft | 311 kts | 207° |
| 2026-05-07 09:37 | 54.47571 | -5.31685 | 19996 ft | 309 kts | 207° |
| 2026-05-07 09:37 | 54.45649 | -5.33307 | 19675 ft | 307 kts | 207° |
| 2026-05-07 09:37 | 54.43740 | -5.34915 | 19358 ft | 305 kts | 207° |
| 2026-05-07 09:38 | 54.41838 | -5.36516 | 19049 ft | 304 kts | 207° |
| 2026-05-07 09:38 | 54.39946 | -5.38106 | 18727 ft | 302 kts | 207° |
| 2026-05-07 09:38 | 54.38060 | -5.39691 | 18414 ft | 301 kts | 207° |
| 2026-05-07 09:38 | 54.36157 | -5.41288 | 18064 ft | 300 kts | 207° |
| 2026-05-07 09:39 | 54.34291 | -5.42852 | 17711 ft | 298 kts | 207° |
| 2026-05-07 09:39 | 54.32436 | -5.44405 | 17389 ft | 296 kts | 207° |
| 2026-05-07 09:39 | 54.30595 | -5.45945 | 17078 ft | 293 kts | 207° |
| 2026-05-07 09:39 | 54.28769 | -5.47472 | 16767 ft | 291 kts | 207° |
| 2026-05-07 09:40 | 54.26956 | -5.48985 | 16458 ft | 289 kts | 207° |
| 2026-05-07 09:40 | 54.25153 | -5.50489 | 16154 ft | 287 kts | 207° |
| 2026-05-07 09:40 | 54.23365 | -5.51979 | 15852 ft | 285 kts | 207° |
| 2026-05-07 09:40 | 54.21585 | -5.53461 | 15546 ft | 283 kts | 207° |
| 2026-05-07 09:41 | 54.19819 | -5.54930 | 15262 ft | 282 kts | 207° |
| 2026-05-07 09:41 | 54.18064 | -5.56388 | 14965 ft | 280 kts | 207° |
| 2026-05-07 09:41 | 54.16318 | -5.57838 | 14673 ft | 279 kts | 207° |
| 2026-05-07 09:41 | 54.14576 | -5.59283 | 14381 ft | 277 kts | 207° |
| 2026-05-07 09:42 | 54.12848 | -5.60715 | 14085 ft | 276 kts | 207° |
| 2026-05-07 09:42 | 54.11121 | -5.62144 | 13783 ft | 275 kts | 207° |
| 2026-05-07 09:42 | 54.09399 | -5.63569 | 13456 ft | 274 kts | 207° |
| 2026-05-07 09:42 | 54.07685 | -5.64986 | 13147 ft | 273 kts | 206° |
| 2026-05-07 09:43 | 54.05982 | -5.66392 | 12863 ft | 271 kts | 206° |
| 2026-05-07 09:43 | 54.04291 | -5.67787 | 12572 ft | 270 kts | 206° |
| 2026-05-07 09:43 | 54.02607 | -5.69175 | 12280 ft | 268 kts | 206° |
| 2026-05-07 09:43 | 54.00934 | -5.70553 | 11995 ft | 266 kts | 206° |
| 2026-05-07 09:44 | 53.99272 | -5.71920 | 11717 ft | 265 kts | 206° |
| 2026-05-07 09:44 | 53.97619 | -5.73278 | 11434 ft | 263 kts | 206° |
| 2026-05-07 09:44 | 53.95948 | -5.74518 | 11146 ft | 262 kts | 198° |
| 2026-05-07 09:44 | 53.94187 | -5.75277 | 10877 ft | 261 kts | 193° |
| 2026-05-07 09:45 | 53.92411 | -5.75895 | 10598 ft | 260 kts | 192° |
| 2026-05-07 09:45 | 53.90640 | -5.76493 | 10323 ft | 259 kts | 192° |
| 2026-05-07 09:45 | 53.88880 | -5.77094 | 10101 ft | 256 kts | 192° |
| 2026-05-07 09:45 | 53.87165 | -5.77690 | 9974 ft | 249 kts | 193° |
| 2026-05-07 09:46 | 53.85473 | -5.78286 | 9677 ft | 248 kts | 192° |
| 2026-05-07 09:46 | 53.83792 | -5.78884 | 9434 ft | 245 kts | 192° |
| 2026-05-07 09:46 | 53.82126 | -5.79481 | 9159 ft | 244 kts | 192° |
| 2026-05-07 09:46 | 53.80474 | -5.80076 | 8899 ft | 242 kts | 193° |
| 2026-05-07 09:47 | 53.78832 | -5.80669 | 8642 ft | 241 kts | 193° |
| 2026-05-07 09:47 | 53.77202 | -5.81258 | 8386 ft | 239 kts | 193° |
| 2026-05-07 09:47 | 53.75554 | -5.81855 | 8126 ft | 238 kts | 192° |
| 2026-05-07 09:47 | 53.73942 | -5.82439 | 7878 ft | 236 kts | 192° |
| 2026-05-07 09:48 | 53.72337 | -5.83021 | 7621 ft | 235 kts | 192° |
| 2026-05-07 09:48 | 53.70740 | -5.83599 | 7356 ft | 234 kts | 192° |
| 2026-05-07 09:48 | 53.69149 | -5.84176 | 7117 ft | 233 kts | 192° |
| 2026-05-07 09:48 | 53.67564 | -5.84749 | 6867 ft | 232 kts | 192° |
| 2026-05-07 09:49 | 53.65982 | -5.85322 | 6626 ft | 235 kts | 192° |
| 2026-05-07 09:49 | 53.64357 | -5.85910 | 6388 ft | 243 kts | 192° |
| 2026-05-07 09:49 | 53.62687 | -5.86513 | 6111 ft | 247 kts | 192° |
| 2026-05-07 09:49 | 53.61012 | -5.87118 | 5829 ft | 246 kts | 192° |
| 2026-05-07 09:50 | 53.59350 | -5.87718 | 5551 ft | 244 kts | 192° |
| 2026-05-07 09:50 | 53.57692 | -5.88315 | 5307 ft | 242 kts | 193° |
| 2026-05-07 09:50 | 53.56053 | -5.88906 | 5047 ft | 241 kts | 192° |
| 2026-05-07 09:50 | 53.54418 | -5.89495 | 4799 ft | 239 kts | 193° |
| 2026-05-07 09:51 | 53.52807 | -5.90074 | 4669 ft | 233 kts | 192° |
| 2026-05-07 09:51 | 53.51249 | -5.90634 | 4553 ft | 226 kts | 193° |
| 2026-05-07 09:51 | 53.49735 | -5.91178 | 4448 ft | 219 kts | 192° |
| 2026-05-07 09:51 | 53.48275 | -5.91702 | 4361 ft | 211 kts | 193° |
| 2026-05-07 09:52 | 53.47339 | -5.92038 | 4311 ft | 204 kts | 193° |
| 2026-05-07 09:52 | 53.45980 | -5.92525 | 4230 ft | 191 kts | 193° |
| 2026-05-07 09:52 | 53.44714 | -5.92978 | 4060 ft | 182 kts | 193° |
| 2026-05-07 09:52 | 53.43491 | -5.93416 | 3881 ft | 177 kts | 193° |
| 2026-05-07 09:53 | 53.42294 | -5.93844 | 3698 ft | 174 kts | 193° |
| 2026-05-07 09:53 | 53.41184 | -5.94623 | 3476 ft | 177 kts | 224° |
| 2026-05-07 09:53 | 53.40750 | -5.96496 | 3307 ft | 176 kts | 266° |
| 2026-05-07 09:53 | 53.40739 | -5.98516 | 3125 ft | 172 kts | 265° |
| 2026-05-07 09:54 | 53.40766 | -6.00518 | 3025 ft | 173 kts | 269° |
| 2026-05-07 09:54 | 53.40847 | -6.02540 | 2890 ft | 173 kts | 271° |
| 2026-05-07 09:54 | 53.40946 | -6.04520 | 2667 ft | 169 kts | 271° |
| 2026-05-07 09:54 | 53.41046 | -6.06432 | 2430 ft | 159 kts | 271° |
| 2026-05-07 09:55 | 53.41139 | -6.08204 | 2254 ft | 148 kts | 270° |
| 2026-05-07 09:55 | 53.41228 | -6.09919 | 2038 ft | 145 kts | 270° |
| 2026-05-07 09:55 | 53.41315 | -6.11594 | 1842 ft | 144 kts | 270° |
| 2026-05-07 09:55 | 53.41403 | -6.13282 | 1642 ft | 146 kts | 270° |
| 2026-05-07 09:56 | 53.41492 | -6.14958 | 1442 ft | 144 kts | 270° |
| 2026-05-07 09:56 | 53.41580 | -6.16638 | 1232 ft | 145 kts | 270° |
| 2026-05-07 09:56 | 53.41670 | -6.18319 | 1037 ft | 145 kts | 271° |
| 2026-05-07 09:56 | 53.41751 | -6.20017 | 847 ft | 147 kts | 274° |
| 2026-05-07 09:57 | 53.41852 | -6.21745 | 636 ft | 150 kts | 274° |
| 2026-05-07 09:57 | 53.41941 | -6.23465 | 432 ft | 147 kts | 273° |
| 2026-05-07 09:57 | 53.42028 | -6.25139 | 237 ft | 140 kts | 274° |
| 2026-05-07 09:57 | 53.42110 | -6.26601 | 210 ft | 100 kts | 275° |
| 2026-05-07 09:58 | 53.42157 | -6.27421 | 211 ft | 40 kts | 277° |
| 2026-05-07 09:58 | 53.42185 | -6.27766 | 213 ft | 27 kts | 292° |
| 2026-05-07 09:58 | 53.42256 | -6.27998 | 214 ft | 14 kts | 299° |
| 2026-05-07 09:58 | 53.42297 | -6.28111 | 213 ft | 11 kts | 313° |
| 2026-05-07 09:59 | 53.42359 | -6.28101 | 211 ft | 11 kts | 65° |
| 2026-05-07 09:59 | 53.42362 | -6.27982 | 212 ft | 10 kts | 95° |
| 2026-05-07 09:59 | 53.42352 | -6.27867 | 210 ft | 10 kts | 94° |
| 2026-05-07 09:59 | 53.42346 | -6.27749 | 213 ft | 11 kts | 94° |
| 2026-05-07 10:00 | 53.42340 | -6.27612 | 215 ft | 13 kts | 94° |
| 2026-05-07 10:00 | 53.42330 | -6.27455 | 210 ft | 14 kts | 98° |
| 2026-05-07 10:00 | 53.42320 | -6.27281 | 214 ft | 16 kts | 95° |
| 2026-05-07 10:00 | 53.42311 | -6.27091 | 217 ft | 17 kts | 95° |
| 2026-05-07 10:01 | 53.42300 | -6.26880 | 210 ft | 18 kts | 95° |
| 2026-05-07 10:01 | 53.42287 | -6.26659 | 210 ft | 20 kts | 96° |
| 2026-05-07 10:01 | 53.42272 | -6.26423 | 216 ft | 21 kts | 96° |
| 2026-05-07 10:01 | 53.42271 | -6.26206 | 210 ft | 18 kts | 77° |
| 2026-05-07 10:02 | 53.42341 | -6.26027 | 210 ft | 19 kts | 45° |
| 2026-05-07 10:02 | 53.42437 | -6.25861 | 215 ft | 20 kts | 46° |
| 2026-05-07 10:02 | 53.42543 | -6.25684 | 210 ft | 21 kts | 45° |
| 2026-05-07 10:02 | 53.42649 | -6.25502 | 210 ft | 22 kts | 46° |
| 2026-05-07 10:03 | 53.42753 | -6.25320 | 214 ft | 23 kts | 46° |
| 2026-05-07 10:03 | 53.42795 | -6.25152 | 210 ft | 15 kts | 91° |
| 2026-05-07 10:03 | 53.42830 | -6.25024 | 210 ft | 13 kts | 40° |
| 2026-05-07 10:03 | 53.42893 | -6.24916 | 213 ft | 9 kts | 46° |
| 2026-05-07 10:04 | 53.42944 | -6.24916 | 215 ft | 9 kts | 299° |
| 2026-05-07 10:04 | 53.42954 | -6.25027 | 216 ft | 8 kts | 274° |
| 2026-05-07 10:04 | 53.42973 | -6.25079 | 210 ft | 5 kts | 356° |
| 2026-05-07 10:04 | 53.42998 | -6.25076 | 215 ft | 2 kts | 5° |
| 2026-05-07 10:05 | 53.43012 | -6.25074 | 210 ft | 1 kts | 5° |
| 2026-05-07 10:05 | 53.43015 | -6.25074 | 214 ft | 0 kts | 5° |